createdAt,value
2023-01-22T00:01:57.075Z,52.90
2023-01-22T00:04:25.868Z,50.92
2023-01-22T00:06:54.586Z,52.97
2023-01-22T00:09:23.455Z,51.10
2023-01-22T00:11:52.881Z,51.58
2023-01-22T00:14:21.724Z,49.35
2023-01-22T00:16:50.384Z,53.90
2023-01-22T00:19:19.083Z,50.80
2023-01-22T00:21:47.838Z,51.70
2023-01-22T00:24:16.656Z,56.63
2023-01-22T00:26:45.604Z,60.80
2023-01-22T00:29:14.745Z,64.50
2023-01-22T00:31:43.537Z,61.95
2023-01-22T00:34:12.411Z,63.20
2023-01-22T00:36:42.847Z,59.47
2023-01-22T00:39:11.940Z,57.95
2023-01-22T00:41:41.154Z,57.67
2023-01-22T00:44:09.876Z,57.90
2023-01-22T00:46:38.545Z,57.95
2023-01-22T00:49:07.326Z,56.90
2023-01-22T00:51:37.731Z,57.60
2023-01-22T00:54:06.655Z,59.03
2023-01-22T00:56:35.467Z,57.90
2023-01-22T00:59:11.106Z,59.95
2023-01-22T01:01:40.470Z,59.05
2023-01-22T01:04:09.253Z,61.10
2023-01-22T01:06:44.581Z,62.45
2023-01-22T01:09:13.676Z,69.72
2023-01-22T01:11:42.522Z,71.78
2023-01-22T01:14:11.231Z,75.57
2023-01-22T01:16:39.885Z,73.95
2023-01-22T01:19:11.101Z,72.80
2023-01-22T01:21:40.169Z,77.45
2023-01-22T01:24:10.614Z,79.47
2023-01-22T01:26:40.816Z,76.40
2023-01-22T01:29:11.846Z,71.93
2023-01-22T01:31:40.949Z,73.55
2023-01-22T01:34:09.795Z,67.53
2023-01-22T01:36:48.840Z,65.95
2023-01-22T01:39:18.577Z,67.00
2023-01-22T01:41:47.406Z,64.22
2023-01-22T01:44:19.729Z,62.65
2023-01-22T01:47:11.300Z,60.58
2023-01-22T01:49:45.939Z,57.72
2023-01-22T01:52:16.089Z,60.58
2023-01-22T01:54:51.338Z,61.70
2023-01-22T01:57:26.643Z,62.58
2023-01-22T01:59:56.157Z,65.18
2023-01-22T02:02:25.456Z,60.65
2023-01-22T02:04:54.812Z,61.83
2023-01-22T02:07:23.741Z,66.10
2023-01-22T02:09:52.718Z,64.57
2023-01-22T02:12:21.548Z,66.25
2023-01-22T02:14:51.178Z,63.53
2023-01-22T02:17:23.609Z,63.13
2023-01-22T02:19:52.298Z,62.72
2023-01-22T02:22:32.265Z,62.95
2023-01-22T02:25:01.582Z,65.30
2023-01-22T02:27:30.384Z,65.97
2023-01-22T02:29:59.278Z,70.35
2023-01-22T02:32:29.782Z,71.50
2023-01-22T02:34:58.527Z,70.45
2023-01-22T02:37:27.287Z,68.82
2023-01-22T02:39:56.068Z,67.65
2023-01-22T02:42:24.892Z,60.58
2023-01-22T02:44:54.439Z,59.92
2023-01-22T02:47:23.212Z,62.63
2023-01-22T02:49:51.839Z,64.40
2023-01-22T02:52:20.484Z,64.53
2023-01-22T02:54:49.353Z,60.03
2023-01-22T02:57:18.021Z,57.03
2023-01-22T02:59:46.842Z,62.58
2023-01-22T03:02:15.531Z,62.40
2023-01-22T03:04:44.220Z,61.45
2023-01-22T03:07:12.937Z,54.30
2023-01-22T03:09:41.647Z,56.72
2023-01-22T03:12:10.404Z,59.17
2023-01-22T03:14:58.793Z,63.08
2023-01-22T03:17:47.035Z,62.60
2023-01-22T03:20:35.368Z,47.50
2023-01-22T03:23:04.129Z,47.05
2023-01-22T03:25:32.737Z,48.90
2023-01-22T03:28:20.223Z,47.33
2023-01-22T03:30:48.950Z,44.85
2023-01-22T03:33:17.620Z,43.35
2023-01-22T03:35:46.413Z,40.80
2023-01-22T03:38:15.128Z,38.25
2023-01-22T03:40:43.876Z,30.23
2023-01-22T03:43:12.581Z,33.35
2023-01-22T03:45:41.314Z,32.95
2023-01-22T03:48:09.944Z,30.50
2023-01-22T03:50:38.526Z,31.08
2023-01-22T03:53:07.454Z,25.90
2023-01-22T03:55:36.226Z,26.55
2023-01-22T03:58:04.970Z,25.13
2023-01-22T04:00:33.583Z,24.98
2023-01-22T04:03:02.271Z,25.25
2023-01-22T04:05:30.901Z,22.80
2023-01-22T04:07:59.532Z,21.92
2023-01-22T04:10:29.242Z,24.10
2023-01-22T04:12:57.973Z,22.90
2023-01-22T04:15:26.649Z,24.27
2023-01-22T04:17:55.317Z,25.10
2023-01-22T04:20:24.026Z,25.48
2023-01-22T04:22:53.043Z,26.35
2023-01-22T04:25:21.709Z,26.80
2023-01-22T04:27:50.339Z,26.70
2023-01-22T04:30:19.527Z,27.02
2023-01-22T04:32:48.445Z,28.13
2023-01-22T04:35:17.190Z,26.35
2023-01-22T04:37:45.823Z,26.70
2023-01-22T04:40:16.880Z,28.65
2023-01-22T04:42:45.810Z,30.17
2023-01-22T04:45:15.023Z,27.25
2023-01-22T04:47:46.113Z,29.55
2023-01-22T04:50:20.367Z,29.08
2023-01-22T04:52:51.657Z,31.10
2023-01-22T04:55:20.681Z,31.35
2023-01-22T04:57:49.632Z,30.30
2023-01-22T05:00:19.385Z,28.10
2023-01-22T05:02:49.053Z,29.30
2023-01-22T05:05:17.894Z,29.05
2023-01-22T05:07:46.722Z,28.45
2023-01-22T05:10:15.495Z,28.02
2023-01-22T05:12:44.163Z,26.90
2023-01-22T05:15:23.551Z,25.73
2023-01-22T05:17:54.235Z,23.92
2023-01-22T05:20:22.982Z,23.00
2023-01-22T05:22:51.657Z,22.35
2023-01-22T05:25:20.354Z,21.67
2023-01-22T05:27:48.948Z,22.05
2023-01-22T05:30:18.297Z,21.27
2023-01-22T05:32:47.196Z,20.85
2023-01-22T05:35:16.279Z,21.65
2023-01-22T05:37:44.886Z,20.20
2023-01-22T05:40:14.132Z,19.88
2023-01-22T05:42:42.761Z,20.27
2023-01-22T05:45:11.805Z,19.70
2023-01-22T05:47:40.486Z,19.10
2023-01-22T05:50:10.897Z,19.60
2023-01-22T05:52:39.607Z,18.48
2023-01-22T05:55:08.714Z,20.00
2023-01-22T05:57:37.868Z,17.55
2023-01-22T06:00:09.225Z,17.55
2023-01-22T06:02:37.928Z,17.25
2023-01-22T06:05:07.134Z,17.40
2023-01-22T06:07:35.808Z,16.02
2023-01-22T06:10:07.415Z,15.82
2023-01-22T06:12:36.246Z,16.20
2023-01-22T06:15:05.184Z,15.80
2023-01-22T06:17:33.887Z,17.30
2023-01-22T06:20:02.649Z,17.67
2023-01-22T06:22:31.306Z,15.43
2023-01-22T06:25:00.003Z,15.65
2023-01-22T06:27:28.820Z,15.50
2023-01-22T06:29:57.535Z,15.27
2023-01-22T06:32:26.338Z,15.27
2023-01-22T06:34:55.075Z,17.38
2023-01-22T06:37:23.956Z,16.60
2023-01-22T06:39:52.865Z,16.55
2023-01-22T06:42:21.709Z,14.02
2023-01-22T06:44:52.971Z,14.55
2023-01-22T06:47:21.711Z,14.73
2023-01-22T06:49:50.479Z,14.82
2023-01-22T06:52:19.188Z,15.18
2023-01-22T06:54:47.945Z,14.18
2023-01-22T06:57:16.597Z,13.98
2023-01-22T06:59:45.204Z,11.88
2023-01-22T07:02:19.312Z,11.55
2023-01-22T07:04:48.342Z,12.80
2023-01-22T07:07:17.036Z,13.25
2023-01-22T07:09:45.751Z,13.23
2023-01-22T07:12:14.455Z,12.73
2023-01-22T07:14:43.077Z,11.98
2023-01-22T07:17:12.091Z,12.52
2023-01-22T07:19:40.875Z,12.82
2023-01-22T07:22:09.644Z,12.27
2023-01-22T07:24:38.312Z,12.23
2023-01-22T07:27:07.006Z,11.63
2023-01-22T07:29:40.706Z,11.90
2023-01-22T07:32:09.364Z,11.48
2023-01-22T07:34:38.469Z,12.70
2023-01-22T07:37:07.111Z,12.48
2023-01-22T07:39:36.717Z,12.43
2023-01-22T07:42:05.502Z,13.88
2023-01-22T07:44:34.432Z,13.75
2023-01-22T07:47:03.355Z,12.40
2023-01-22T07:49:32.056Z,12.57
2023-01-22T07:52:00.736Z,13.38
2023-01-22T07:54:29.464Z,12.77
2023-01-22T07:56:58.143Z,14.43
2023-01-22T07:59:26.787Z,13.93
2023-01-22T08:01:56.908Z,14.13
2023-01-22T08:04:26.481Z,14.77
2023-01-22T08:06:55.205Z,15.60
2023-01-22T08:09:26.632Z,15.20
2023-01-22T08:11:55.759Z,14.98
2023-01-22T08:14:24.504Z,15.48
2023-01-22T08:16:53.077Z,14.45
2023-01-22T08:19:22.053Z,14.50
2023-01-22T08:21:50.803Z,15.10
2023-01-22T08:24:19.487Z,16.05
2023-01-22T08:26:48.449Z,15.65
2023-01-22T08:29:17.248Z,16.45
2023-01-22T08:31:46.104Z,16.92
2023-01-22T08:34:14.946Z,16.88
2023-01-22T08:36:43.583Z,16.88
2023-01-22T08:39:12.447Z,17.52
2023-01-22T08:41:42.273Z,17.67
2023-01-22T08:44:14.716Z,18.17
2023-01-22T08:46:43.456Z,17.35
2023-01-22T08:49:12.155Z,17.17
2023-01-22T08:51:40.859Z,17.05
2023-01-22T08:54:09.665Z,17.40
2023-01-22T08:56:38.374Z,17.38
2023-01-22T08:59:07.445Z,16.65
2023-01-22T09:01:36.474Z,18.20
2023-01-22T09:04:09.009Z,16.92
2023-01-22T09:06:38.475Z,17.27
2023-01-22T09:09:08.245Z,16.08
2023-01-22T09:11:36.978Z,16.55
2023-01-22T09:14:08.683Z,16.92
2023-01-22T09:16:38.296Z,16.67
2023-01-22T09:19:07.985Z,15.25
2023-01-22T09:21:38.398Z,16.30
2023-01-22T09:24:07.815Z,16.15
2023-01-22T09:26:37.937Z,16.50
2023-01-22T09:29:07.609Z,16.35
2023-01-22T09:31:38.623Z,17.55
2023-01-22T09:34:08.150Z,16.63
2023-01-22T09:36:36.938Z,16.63
2023-01-22T09:39:05.603Z,16.52
2023-01-22T09:41:40.046Z,15.65
2023-01-22T09:44:13.123Z,15.70
2023-01-22T09:47:01.300Z,17.70
2023-01-22T09:49:38.269Z,16.80
2023-01-22T09:52:07.782Z,15.23
2023-01-22T09:54:36.461Z,15.73
2023-01-22T09:57:08.551Z,14.50
2023-01-22T09:59:46.280Z,16.02
2023-01-22T10:02:25.481Z,15.55
2023-01-22T10:04:58.969Z,16.35
2023-01-22T10:07:36.334Z,16.08
2023-01-22T10:10:22.253Z,16.02
2023-01-22T10:13:08.833Z,16.25
2023-01-22T10:15:37.628Z,17.17
2023-01-22T10:18:19.541Z,15.68
2023-01-22T10:20:48.480Z,16.02
2023-01-22T10:23:20.904Z,16.58
2023-01-22T10:25:49.595Z,16.30
2023-01-22T10:28:26.937Z,16.65
2023-01-22T10:30:59.746Z,16.10
2023-01-22T10:35:58.387Z,16.63
2023-01-22T10:38:32.339Z,16.30
2023-01-22T10:41:04.603Z,16.23
2023-01-22T10:43:37.371Z,17.83
2023-01-22T10:46:17.052Z,17.98
2023-01-22T10:48:45.787Z,18.35
2023-01-22T10:51:18.917Z,17.73
2023-01-22T10:53:53.237Z,18.85
2023-01-22T10:56:41.406Z,19.10
2023-01-22T10:59:30.590Z,19.60
2023-01-22T11:02:02.108Z,20.55
2023-01-22T11:04:34.499Z,20.33
2023-01-22T11:07:25.479Z,20.42
2023-01-22T11:09:55.156Z,20.50
2023-01-22T11:12:46.459Z,19.48
2023-01-22T11:15:41.549Z,20.58
2023-01-22T11:18:33.081Z,23.00
2023-01-22T11:21:03.996Z,25.45
2023-01-22T11:23:40.805Z,25.83
2023-01-22T11:26:36.983Z,26.30
2023-01-22T11:29:07.626Z,25.95
2023-01-22T11:31:45.692Z,28.35
2023-01-22T11:34:18.850Z,27.42
2023-01-22T11:36:59.334Z,25.85
2023-01-22T11:39:32.488Z,24.52
2023-01-22T11:42:08.590Z,22.85
2023-01-22T11:45:02.003Z,21.65
2023-01-22T11:50:24.835Z,20.25
2023-01-22T11:53:03.974Z,19.27
2023-01-22T11:55:53.126Z,19.38
2023-01-22T11:58:47.148Z,20.08
2023-01-22T12:01:36.957Z,22.00
2023-01-22T12:04:17.708Z,20.55
2023-01-22T12:07:01.086Z,21.13
2023-01-22T12:09:41.019Z,20.95
2023-01-22T12:12:26.529Z,23.70
2023-01-22T12:15:00.822Z,24.38
2023-01-22T12:17:45.885Z,24.50
2023-01-22T12:20:30.343Z,27.00
2023-01-22T12:23:03.548Z,25.13
2023-01-22T12:25:52.379Z,24.05
2023-01-22T12:28:26.003Z,24.33
2023-01-22T12:31:01.366Z,25.48
2023-01-22T12:33:35.847Z,25.92
2023-01-22T12:36:06.746Z,24.73
2023-01-22T12:38:59.279Z,23.25
2023-01-22T12:42:07.278Z,24.03
2023-01-22T12:45:01.255Z,22.63
2023-01-22T12:47:53.248Z,23.05
2023-01-22T12:50:24.943Z,23.35
2023-01-22T12:53:02.727Z,23.00
2023-01-22T12:55:39.351Z,24.02
2023-01-22T12:58:23.312Z,22.67
2023-01-22T13:01:06.877Z,23.00
2023-01-22T13:03:36.618Z,23.02
2023-01-22T13:06:19.504Z,24.25
2023-01-22T13:08:48.648Z,21.58
2023-01-22T13:11:39.195Z,23.75
2023-01-22T13:14:35.693Z,22.90
2023-01-22T13:17:17.252Z,23.67
2023-01-22T13:19:47.615Z,24.48
2023-01-22T13:22:21.074Z,24.10
2023-01-22T13:24:57.888Z,24.10
2023-01-22T13:27:32.223Z,23.92
2023-01-22T13:30:16.408Z,24.20
2023-01-22T13:32:45.348Z,26.27
2023-01-22T13:35:16.853Z,25.83
2023-01-22T13:40:25.217Z,27.75
2023-01-22T13:42:55.353Z,26.67
2023-01-22T13:45:28.920Z,28.23
2023-01-22T13:48:02.503Z,26.92
2023-01-22T13:50:34.262Z,27.88
2023-01-22T13:53:04.595Z,27.58
2023-01-22T13:55:35.219Z,28.58
2023-01-22T13:58:06.299Z,27.63
2023-01-22T14:00:37.755Z,28.63
2023-01-22T14:03:23.167Z,30.25
2023-01-22T14:05:52.130Z,28.30
2023-01-22T14:08:21.015Z,27.83
2023-01-22T14:10:59.768Z,29.63
2023-01-22T14:13:28.630Z,28.77
2023-01-22T14:16:03.249Z,27.70
2023-01-22T14:18:32.025Z,29.70
2023-01-22T14:21:01.209Z,28.48
2023-01-22T14:23:31.256Z,28.20
2023-01-22T14:26:04.511Z,32.22
2023-01-22T14:28:35.232Z,32.53
2023-01-22T14:31:04.332Z,37.83
2023-01-22T14:33:35.958Z,39.33
2023-01-22T14:36:04.903Z,41.17
2023-01-22T14:38:34.031Z,39.97
2023-01-22T14:41:06.470Z,40.67
2023-01-22T14:43:36.845Z,38.75
2023-01-22T14:46:09.188Z,38.15
2023-01-22T14:48:38.127Z,40.25
2023-01-22T14:51:11.890Z,36.58
2023-01-22T14:53:41.232Z,36.53
2023-01-22T14:56:10.474Z,34.70
2023-01-22T14:58:39.456Z,34.83
2023-01-22T15:01:24.429Z,33.10
2023-01-22T15:03:54.488Z,32.65
2023-01-22T15:06:25.085Z,34.17
2023-01-22T15:08:53.919Z,36.00
2023-01-22T15:11:22.747Z,38.72
2023-01-22T15:13:53.835Z,39.58
2023-01-22T15:16:22.923Z,40.75
2023-01-22T15:18:56.886Z,41.15
2023-01-22T15:21:25.895Z,40.85
2023-01-22T15:23:54.859Z,42.35
2023-01-22T15:26:28.787Z,43.35
2023-01-22T15:28:57.664Z,42.08
2023-01-22T15:31:26.582Z,41.20
2023-01-22T15:33:55.750Z,41.03
2023-01-22T15:36:27.344Z,39.10
2023-01-22T15:38:56.251Z,41.10
2023-01-22T15:41:26.862Z,40.03
2023-01-22T15:43:58.085Z,41.58
2023-01-22T15:46:28.581Z,42.55
2023-01-22T15:48:58.403Z,40.70
2023-01-22T15:51:28.416Z,38.42
2023-01-22T15:54:00.124Z,41.67
2023-01-22T15:56:31.214Z,39.78
2023-01-22T15:59:00.573Z,42.85
2023-01-22T16:01:30.194Z,43.10
2023-01-22T16:03:59.500Z,39.17
2023-01-22T16:06:31.551Z,36.83
2023-01-22T16:09:01.957Z,39.10
2023-01-22T16:11:32.027Z,37.72
2023-01-22T16:14:01.305Z,38.38
2023-01-22T16:16:36.123Z,39.13
2023-01-22T16:19:07.097Z,37.47
2023-01-22T16:21:36.904Z,38.50
2023-01-22T16:24:06.387Z,38.08
2023-01-22T16:26:36.457Z,37.63
2023-01-22T16:29:07.477Z,36.20
2023-01-22T16:31:38.408Z,36.83
2023-01-22T16:34:14.677Z,35.15
2023-01-22T16:36:44.411Z,36.30
2023-01-22T16:39:24.210Z,35.92
2023-01-22T16:41:54.818Z,35.55
2023-01-22T16:44:28.455Z,35.20
2023-01-22T16:47:01.004Z,37.10
2023-01-22T16:49:33.147Z,34.30
2023-01-22T16:52:21.583Z,34.90
2023-01-22T16:54:51.398Z,34.67
2023-01-22T16:57:21.280Z,34.13
2023-01-22T17:03:38.030Z,34.58
2023-01-22T17:06:07.237Z,33.42
2023-01-22T17:08:36.104Z,32.65
2023-01-22T17:11:07.225Z,29.67
2023-01-22T17:13:36.137Z,30.83
2023-01-22T17:16:09.123Z,31.52
2023-01-22T17:18:40.400Z,31.90
2023-01-22T17:21:11.673Z,32.00
2023-01-22T17:23:40.524Z,32.63
2023-01-22T17:26:12.799Z,33.08
2023-01-22T17:28:42.406Z,35.65
2023-01-22T17:31:19.147Z,36.33
2023-01-22T17:33:48.067Z,37.67
2023-01-22T17:36:22.232Z,36.83
2023-01-22T17:38:51.462Z,36.25
2023-01-22T17:41:22.164Z,36.05
2023-01-22T17:43:56.729Z,36.03
2023-01-22T17:46:28.345Z,36.85
2023-01-22T17:48:57.687Z,36.85
2023-01-22T17:51:29.288Z,38.08
2023-01-22T17:54:00.421Z,39.38
2023-01-22T17:56:33.606Z,39.35
2023-01-22T17:59:04.524Z,41.63
2023-01-22T18:01:34.767Z,43.70
2023-01-22T18:04:06.695Z,42.08
2023-01-22T18:06:37.037Z,44.55
2023-01-22T18:09:09.692Z,43.05
2023-01-22T18:11:39.517Z,43.35
2023-01-22T18:14:13.659Z,43.75
2023-01-22T18:16:48.656Z,43.88
2023-01-22T18:19:19.656Z,45.53
2023-01-22T18:21:48.548Z,45.67
2023-01-22T18:24:19.014Z,44.90
2023-01-22T18:26:47.755Z,47.05
2023-01-22T18:29:16.770Z,47.75
2023-01-22T18:31:46.069Z,45.22
2023-01-22T18:34:16.347Z,45.33
2023-01-22T18:36:45.329Z,44.83
2023-01-22T18:39:17.434Z,44.88
2023-01-22T18:41:48.081Z,45.30
2023-01-22T18:44:19.762Z,43.67
2023-01-22T18:46:52.681Z,45.75
2023-01-22T18:49:21.518Z,43.30
2023-01-22T18:51:50.626Z,43.70
2023-01-22T18:54:19.806Z,46.42
2023-01-22T18:56:49.116Z,46.13
2023-01-22T18:59:18.513Z,45.15
2023-01-22T19:01:52.642Z,46.15
2023-01-22T19:04:22.869Z,45.40
2023-01-22T19:06:53.595Z,43.65
2023-01-22T19:09:22.805Z,43.10
2023-01-22T19:11:53.288Z,42.17
2023-01-22T19:14:22.882Z,42.63
2023-01-22T19:16:54.390Z,44.83
2023-01-22T19:19:24.043Z,44.85
2023-01-22T19:21:55.872Z,41.75
2023-01-22T19:24:27.744Z,43.50
2023-01-22T19:26:58.127Z,47.60
2023-01-22T19:29:27.458Z,46.22
2023-01-22T19:31:57.878Z,46.33
2023-01-22T19:34:27.286Z,44.28
2023-01-22T19:37:02.211Z,45.08
2023-01-22T19:39:31.821Z,47.42
2023-01-22T19:42:03.052Z,48.47
2023-01-22T19:44:33.007Z,48.85
2023-01-22T19:47:02.898Z,50.33
2023-01-22T19:49:31.662Z,50.38
2023-01-22T19:52:00.619Z,49.55
2023-01-22T19:54:29.400Z,48.47
2023-01-22T19:56:58.055Z,49.08
2023-01-22T19:59:26.863Z,47.25
2023-01-22T20:01:55.773Z,45.90
2023-01-22T20:04:29.650Z,47.80
2023-01-22T20:07:01.664Z,46.22
2023-01-22T20:09:32.195Z,48.03
2023-01-22T20:12:02.266Z,47.03
2023-01-22T20:14:33.446Z,48.80
2023-01-22T20:17:04.134Z,48.00
2023-01-22T20:19:33.384Z,45.78
2023-01-22T20:22:05.348Z,46.88
2023-01-22T20:24:34.824Z,48.03
2023-01-22T20:27:03.587Z,46.85
2023-01-22T20:29:32.388Z,47.22
2023-01-22T20:32:01.258Z,47.45
2023-01-22T20:34:30.037Z,47.20
2023-01-22T20:36:58.754Z,47.67
2023-01-22T20:39:27.460Z,48.20
2023-01-22T20:41:56.765Z,47.25
2023-01-22T20:44:25.785Z,47.60
2023-01-22T20:46:54.425Z,49.03
2023-01-22T20:49:23.160Z,48.97
2023-01-22T20:51:51.875Z,49.20
2023-01-22T20:54:20.917Z,48.03
2023-01-22T20:56:51.314Z,49.95
2023-01-22T20:59:20.749Z,47.42
2023-01-22T21:01:49.550Z,47.47
2023-01-22T21:04:19.907Z,47.28
2023-01-22T21:06:49.145Z,49.03
2023-01-22T21:09:17.865Z,48.63
2023-01-22T21:11:46.753Z,46.78
2023-01-22T21:14:22.028Z,46.13
2023-01-22T21:16:50.799Z,46.80
2023-01-22T21:19:24.567Z,50.67
2023-01-22T21:21:54.180Z,50.17
2023-01-22T21:24:23.234Z,48.47
2023-01-22T21:26:52.152Z,51.13
2023-01-22T21:29:23.354Z,49.08
2023-01-22T21:31:53.987Z,47.58
2023-01-22T21:34:26.682Z,47.10
2023-01-22T21:36:56.539Z,48.13
2023-01-22T21:39:29.213Z,46.75
2023-01-22T21:42:18.530Z,47.70
2023-01-22T21:45:06.925Z,46.30
2023-01-22T21:47:35.711Z,46.33
2023-01-22T21:50:04.364Z,45.67
2023-01-22T21:52:33.177Z,48.15
2023-01-22T21:55:01.961Z,48.13
2023-01-22T21:57:30.680Z,50.10
2023-01-22T22:00:02.389Z,49.13
2023-01-22T22:02:31.154Z,50.65
2023-01-22T22:05:00.911Z,49.63
2023-01-22T22:07:32.434Z,53.35
2023-01-22T22:10:01.146Z,53.75
2023-01-22T22:12:32.389Z,54.60
2023-01-22T22:15:01.147Z,54.00
2023-01-22T22:17:29.895Z,56.25
2023-01-22T22:19:59.013Z,57.88
2023-01-22T22:22:27.669Z,63.22
2023-01-22T22:24:56.433Z,63.70
2023-01-22T22:27:27.689Z,67.88
2023-01-22T22:29:56.717Z,70.22
2023-01-22T22:32:27.385Z,74.85
2023-01-22T22:34:56.068Z,78.13
2023-01-22T22:37:24.873Z,78.82
2023-01-22T22:39:53.971Z,69.57
2023-01-22T22:42:22.676Z,66.45
2023-01-22T22:44:51.444Z,68.15
2023-01-22T22:47:20.208Z,70.10
2023-01-22T22:49:48.891Z,72.55
2023-01-22T22:52:17.615Z,69.85
2023-01-22T22:54:46.430Z,69.18
2023-01-22T22:57:16.857Z,67.57
2023-01-22T22:59:45.610Z,72.60
2023-01-22T23:02:14.450Z,81.10
2023-01-22T23:04:43.776Z,81.40
2023-01-22T23:07:12.510Z,85.07
2023-01-22T23:09:41.275Z,78.72
2023-01-22T23:12:10.775Z,71.78
2023-01-22T23:14:39.602Z,73.65
2023-01-22T23:17:08.369Z,74.90
2023-01-22T23:19:37.010Z,64.95
2023-01-22T23:22:05.778Z,61.13
2023-01-22T23:24:34.515Z,64.30
2023-01-22T23:27:03.206Z,63.58
2023-01-22T23:29:32.024Z,60.58
2023-01-22T23:32:00.603Z,61.70
2023-01-22T23:34:29.369Z,59.85
2023-01-22T23:36:58.127Z,60.78
2023-01-22T23:39:26.787Z,65.53
2023-01-22T23:41:55.497Z,118.95
2023-01-22T23:44:24.322Z,112.85
2023-01-22T23:46:53.052Z,80.03
2023-01-22T23:49:21.797Z,73.47
2023-01-22T23:51:50.562Z,78.32
2023-01-22T23:54:19.362Z,87.82
2023-01-22T23:56:48.044Z,73.00
2023-01-22T23:59:16.698Z,71.65
